Time;durP1;ratioP1;P1;durP2;ratioP2;P2;SDS_P1;SDS_P2;PMS_P1;PMS_P2;Temp;Humidity;BMP_temperature;BMP_pressure;BME280_temperature;BME280_humidity;BME280_pressure;Samples;Min_cycle;Max_cycle;Signal;HPM_P1;HPM_P2
2023/11/10 00:00:20;;;;;;;16.63;2.15;;;11.60;97.60;;;;;;7391573;19;20010;-73
2023/11/10 00:02:51;;;;;;;13.45;2.05;;;11.40;97.60;;;;;;7389320;19;20007;-74
2023/11/10 00:05:21;;;;;;;15.13;2.45;;;11.40;97.70;;;;;;7385027;19;20003;-74
2023/11/10 00:07:50;;;;;;;13.07;1.70;;;11.40;97.70;;;;;;7404545;19;20010;-74
2023/11/10 00:10:21;;;;;;;13.93;3.00;;;11.40;97.60;;;;;;7382553;19;20074;-74
2023/11/10 00:12:49;;;;;;;;;;;11.40;97.70;;;;;;7384578;19;20703;-74
2023/11/10 00:15:18;;;;;;;11.88;1.98;;;11.50;97.60;;;;;;7383939;19;19907;-74
2023/11/10 00:17:47;;;;;;;19.88;2.60;;;11.50;97.50;;;;;;7384035;19;20253;-74
2023/11/10 00:20:16;;;;;;;11.82;2.40;;;11.40;97.40;;;;;;7384234;19;20027;-75
2023/11/10 00:22:45;;;;;;;18.75;2.28;;;11.50;97.50;;;;;;7404724;19;20385;-74
2023/11/10 00:25:14;;;;;;;13.18;1.90;;;11.50;97.30;;;;;;7382738;19;20002;-74
2023/11/10 00:27:45;;;;;;;11.85;1.88;;;11.50;97.30;;;;;;7383416;19;20469;-74
2023/11/10 00:30:15;;;;;;;8.02;1.70;;;11.50;97.30;;;;;;7382925;19;20018;-73
2023/11/10 00:32:43;;;;;;;12.65;2.22;;;11.50;97.50;;;;;;7384018;19;20060;-74
2023/11/10 00:35:12;;;;;;;10.52;1.98;;;11.50;97.20;;;;;;7383901;19;20010;-75
2023/11/10 00:37:41;;;;;;;6.03;1.35;;;11.50;97.20;;;;;;7404875;19;20002;-75
2023/11/10 00:40:11;;;;;;;12.40;2.10;;;11.40;97.10;;;;;;7381721;19;20014;-74
2023/11/10 00:42:40;;;;;;;9.52;1.90;;;11.30;97.20;;;;;;7382233;19;20006;-75
2023/11/10 00:45:13;;;;;;;17.83;2.45;;;11.30;97.30;;;;;;7383332;19;20007;-73
2023/11/10 00:47:42;;;;;;;8.55;1.67;;;11.40;97.40;;;;;;7383201;19;20010;-75
2023/11/10 00:50:11;;;;;;;10.65;1.90;;;11.40;97.40;;;;;;7383203;19;20010;-74
2023/11/10 00:52:40;;;;;;;11.25;2.38;;;11.30;97.40;;;;;;7404189;19;20007;-75
2023/11/10 00:55:10;;;;;;;8.88;1.52;;;11.30;97.50;;;;;;7382408;19;20066;-75
2023/11/10 00:57:39;;;;;;;16.08;1.92;;;11.10;97.60;;;;;;7383250;19;20006;-74
2023/11/10 01:00:12;;;;;;;8.50;1.65;;;11.30;97.70;;;;;;7382805;19;20006;-74
2023/11/10 01:02:42;;;;;;;7.05;1.92;;;11.30;97.50;;;;;;7382711;19;20378;-74
2023/11/10 01:05:12;;;;;;;11.00;1.88;;;11.20;97.50;;;;;;7382332;19;20011;-74
2023/11/10 01:07:41;;;;;;;11.88;2.17;;;11.20;97.60;;;;;;7402821;19;20015;-74
2023/11/10 01:10:12;;;;;;;15.52;2.30;;;11.30;97.50;;;;;;7381202;19;20564;-75
2023/11/10 01:12:41;;;;;;;16.20;2.60;;;11.30;97.50;;;;;;7382128;19;20003;-73
2023/11/10 01:15:15;;;;;;;9.23;2.40;;;11.40;97.50;;;;;;7382075;19;20398;-75
2023/11/10 01:17:44;;;;;;;7.68;1.98;;;11.30;97.50;;;;;;7382377;19;20004;-74
2023/11/10 01:20:22;;;;;;;20.50;2.78;;;11.10;97.60;;;;;;7379892;19;20010;-73
2023/11/10 01:22:51;;;;;;;12.55;2.08;;;11.10;97.60;;;;;;7403452;19;20030;-75
2023/11/10 01:25:20;;;;;;;13.25;2.05;;;11.00;97.80;;;;;;7381169;19;20007;-74
2023/11/10 01:27:48;;;;;;;16.08;2.03;;;11.00;97.70;;;;;;7381731;19;20064;-74
2023/11/10 01:30:20;;;;;;;17.55;2.35;;;11.10;97.80;;;;;;7381272;19;20286;-76
2023/11/10 01:32:49;;;;;;;18.92;2.53;;;11.10;97.80;;;;;;7381438;19;20003;-74
2023/11/10 01:35:17;;;;;;;14.68;2.22;;;11.20;97.80;;;;;;7381658;19;20022;-75
2023/11/10 01:37:47;;;;;;;12.63;2.40;;;11.20;97.70;;;;;;7402774;19;20009;-74
2023/11/10 01:40:16;;;;;;;18.25;2.20;;;11.20;98.00;;;;;;7380516;19;20002;-75
2023/11/10 01:42:45;;;;;;;15.93;2.50;;;11.30;97.70;;;;;;7381211;19;19999;-75
2023/11/10 01:45:15;;;;;;;19.73;2.55;;;11.30;97.60;;;;;;7381340;19;20048;-75
2023/11/10 01:47:48;;;;;;;6.90;1.88;;;11.30;97.60;;;;;;7379858;19;20221;-75
2023/11/10 01:50:19;;;;;;;13.65;2.20;;;11.20;97.50;;;;;;7380999;19;20011;-74
2023/11/10 01:52:48;;;;;;;7.70;2.42;;;11.20;97.50;;;;;;7400620;19;20106;-74
2023/11/10 01:55:16;;;;;;;14.27;2.47;;;11.10;97.60;;;;;;7383721;19;19999;-75
2023/11/10 01:57:46;;;;;;;20.42;2.60;;;11.20;97.70;;;;;;7380656;19;20002;-74
2023/11/10 02:00:16;;;;;;;11.90;2.33;;;11.20;97.60;;;;;;7380620;19;20018;-74
2023/11/10 02:02:49;;;;;;;15.32;2.05;;;11.20;97.60;;;;;;7380754;19;20061;-74
2023/11/10 02:05:19;;;;;;;9.88;2.15;;;11.20;97.70;;;;;;7380366;19;20106;-74
2023/11/10 02:07:47;;;;;;;24.05;2.35;;;11.10;97.50;;;;;;7400994;19;20010;-73
2023/11/10 02:10:16;;;;;;;12.60;2.13;;;11.10;97.50;;;;;;7379569;19;20002;-74
2023/11/10 02:12:52;;;;;;;12.45;2.38;;;11.00;97.50;;;;;;7379947;19;20006;-74
2023/11/10 02:15:24;;;;;;;10.68;2.08;;;11.00;97.70;;;;;;7380291;19;20095;-75
2023/11/10 02:17:55;;;;;;;7.85;2.38;;;11.00;97.70;;;;;;7380490;19;20020;-75
2023/11/10 02:20:24;;;;;;;18.13;2.20;;;11.00;97.70;;;;;;7380256;19;20027;-74
2023/11/10 02:22:53;;;;;;;18.35;2.45;;;11.10;97.70;;;;;;7401588;19;20240;-74
2023/11/10 02:25:25;;;;;;;11.70;2.75;;;11.10;97.60;;;;;;7380339;19;20042;-73
2023/11/10 02:27:53;;;;;;;11.52;2.47;;;11.10;97.60;;;;;;7380855;19;20366;-74
2023/11/10 02:30:22;;;;;;;18.80;2.72;;;11.10;97.50;;;;;;7380601;19;20002;-73
2023/11/10 02:32:51;;;;;;;6.93;2.17;;;11.10;97.50;;;;;;7379985;19;20019;-74
2023/11/10 02:35:20;;;;;;;12.85;2.22;;;11.10;97.50;;;;;;7380141;19;20058;-75
2023/11/10 02:37:48;;;;;;;12.75;2.17;;;11.10;97.50;;;;;;7400707;19;20417;-73
2023/11/10 02:40:17;;;;;;;11.43;1.95;;;11.10;97.50;;;;;;7378789;19;20002;-73
2023/11/10 02:42:50;;;;;;;9.43;2.28;;;11.10;97.40;;;;;;7379739;19;20025;-73
2023/11/10 02:45:19;;;;;;;13.60;2.42;;;11.00;97.40;;;;;;7384430;19;20010;-74
2023/11/10 02:47:47;;;;;;;9.55;2.13;;;11.00;97.60;;;;;;7377624;19;20317;-73
2023/11/10 02:50:16;;;;;;;11.32;1.98;;;10.90;97.60;;;;;;7379342;19;20010;-74
2023/11/10 02:52:45;;;;;;;11.10;2.17;;;10.90;97.60;;;;;;7398645;19;20011;-74
2023/11/10 02:55:13;;;;;;;10.38;2.13;;;10.90;97.60;;;;;;7378227;19;19998;-73
2023/11/10 02:57:42;;;;;;;19.98;2.58;;;10.90;97.60;;;;;;7378355;19;20251;-74
2023/11/10 03:00:15;;;;;;;11.30;2.40;;;10.80;97.60;;;;;;7379253;19;20006;-74
2023/11/10 03:02:43;;;;;;;16.85;1.88;;;10.80;97.60;;;;;;7378146;19;20425;-73
2023/11/10 03:05:12;;;;;;;7.93;2.05;;;10.70;97.70;;;;;;7378675;19;20007;-73
2023/11/10 03:07:40;;;;;;;19.60;2.63;;;10.80;97.80;;;;;;7398630;19;20014;-73
2023/11/10 03:10:11;;;;;;;15.88;2.22;;;10.80;97.60;;;;;;7377522;19;20068;-74
2023/11/10 03:12:40;;;;;;;16.63;2.38;;;10.90;97.60;;;;;;7377732;19;20006;-74
2023/11/10 03:15:13;;;;;;;10.25;1.70;;;10.80;97.50;;;;;;7378235;19;20010;-74
2023/11/10 03:17:41;;;;;;;9.57;1.73;;;10.90;97.60;;;;;;7378548;19;20058;-74
2023/11/10 03:20:12;;;;;;;8.73;1.77;;;10.90;97.50;;;;;;7378506;19;20241;-73
2023/11/10 03:22:41;;;;;;;18.55;2.20;;;10.80;97.50;;;;;;7399800;19;20346;-73
2023/11/10 03:25:11;;;;;;;11.82;2.55;;;10.80;97.60;;;;;;7377077;19;20014;-73
2023/11/10 03:27:40;;;;;;;12.40;1.52;;;10.50;97.80;;;;;;7377519;19;20035;-75
2023/11/10 03:30:13;;;;;;;4.90;1.98;;;10.50;97.90;;;;;;7377602;19;20003;-74
2023/11/10 03:32:42;;;;;;;21.67;2.75;;;10.70;97.90;;;;;;7376727;19;20006;-74
2023/11/10 03:35:11;;;;;;;13.27;2.42;;;10.70;97.90;;;;;;7377481;19;20010;-74
2023/11/10 03:37:40;;;;;;;23.48;2.15;;;10.70;97.90;;;;;;7399064;19;20067;-73
2023/11/10 03:40:11;;;;;;;14.27;2.33;;;10.60;97.90;;;;;;7376707;19;20002;-73
2023/11/10 03:42:40;;;;;;;15.90;2.30;;;10.70;97.90;;;;;;7377065;19;20003;-74
2023/11/10 03:45:14;;;;;;;7.70;1.92;;;10.80;97.80;;;;;;7377525;19;20395;-74
2023/11/10 03:47:43;;;;;;;14.60;1.88;;;10.80;97.70;;;;;;7379545;19;20013;-73
2023/11/10 03:50:12;;;;;;;18.88;2.13;;;10.80;97.70;;;;;;7377087;19;20006;-74
2023/11/10 03:52:42;;;;;;;16.35;2.60;;;10.80;97.60;;;;;;7396911;19;20075;-73
2023/11/10 03:55:11;;;;;;;7.88;1.98;;;10.90;97.60;;;;;;7376460;19;20011;-73
2023/11/10 03:57:39;;;;;;;9.02;2.28;;;10.90;97.60;;;;;;7376751;19;20078;-73
2023/11/10 04:00:11;;;;;;;13.40;2.25;;;10.90;97.60;;;;;;7377510;19;20078;-74
2023/11/10 04:02:44;;;;;;;10.27;2.10;;;11.00;97.60;;;;;;7376956;19;20014;-74
2023/11/10 04:05:13;;;;;;;17.80;1.92;;;11.00;97.50;;;;;;7377792;19;20007;-74
2023/11/10 04:07:42;;;;;;;7.10;1.60;;;11.00;97.30;;;;;;7397205;19;20010;-74
2023/11/10 04:10:13;;;;;;;8.95;2.53;;;11.00;97.40;;;;;;7375943;19;20007;-73
2023/11/10 04:12:42;;;;;;;;;;;11.10;97.40;;;;;;7377264;19;20488;-74
2023/11/10 04:15:12;;;;;;;11.68;2.03;;;11.10;97.30;;;;;;7377660;19;20182;-74
2023/11/10 04:17:43;;;;;;;9.45;1.92;;;11.20;97.30;;;;;;7384423;19;20026;-73
2023/11/10 04:20:13;;;;;;;13.52;1.80;;;11.10;97.20;;;;;;7383987;19;20083;-74
2023/11/10 04:22:43;;;;;;;18.17;2.28;;;11.00;97.50;;;;;;7405033;19;20003;-74
2023/11/10 04:25:12;;;;;;;12.75;2.50;;;11.10;97.30;;;;;;7382894;19;20013;-74
2023/11/10 04:27:41;;;;;;;11.50;2.05;;;11.10;97.20;;;;;;7383686;19;20011;-74
2023/11/10 04:30:11;;;;;;;7.50;1.92;;;11.10;97.10;;;;;;7383468;19;20014;-74
2023/11/10 04:32:39;;;;;;;7.78;2.35;;;11.20;97.10;;;;;;7382365;19;20020;-74
2023/11/10 04:35:12;;;;;;;12.15;2.70;;;11.20;97.10;;;;;;7384028;19;20017;-74
2023/11/10 04:37:41;;;;;;;15.73;2.17;;;11.20;97.20;;;;;;7404680;19;20009;-73
2023/11/10 04:40:14;;;;;;;9.18;1.52;;;11.20;97.10;;;;;;7382241;19;20007;-74
2023/11/10 04:42:44;;;;;;;8.65;2.22;;;11.30;97.00;;;;;;7383715;19;20072;-74
2023/11/10 04:45:13;;;;;;;14.93;2.65;;;11.30;97.00;;;;;;7383042;19;20074;-73
2023/11/10 04:47:41;;;;;;;12.35;1.63;;;11.00;97.00;;;;;;7382663;19;20006;-74
2023/11/10 04:50:13;;;;;;;17.40;2.15;;;11.00;97.00;;;;;;7383324;19;20014;-73
2023/11/10 04:52:42;;;;;;;11.65;2.08;;;10.90;97.20;;;;;;7402760;19;20002;-73
2023/11/10 04:55:12;;;;;;;13.77;2.30;;;10.90;97.30;;;;;;7382038;19;20075;-73
2023/11/10 04:57:41;;;;;;;10.15;2.05;;;10.90;97.30;;;;;;7382065;19;20038;-74
2023/11/10 05:00:09;;;;;;;18.10;2.45;;;11.00;97.30;;;;;;7386501;19;20054;-73
2023/11/10 05:02:37;;;;;;;12.27;1.83;;;10.90;97.30;;;;;;7386013;19;20070;-73
2023/11/10 05:05:06;;;;;;;10.68;1.95;;;10.90;97.30;;;;;;7387059;19;20563;-74
2023/11/10 05:07:38;;;;;;;11.35;2.45;;;10.50;97.40;;;;;;7407645;19;20032;-75
2023/11/10 05:10:07;;;;;;;14.10;1.77;;;10.20;97.70;;;;;;7387357;19;20002;-74
2023/11/10 05:12:37;;;;;;;11.88;2.05;;;10.30;98.10;;;;;;7383512;19;20112;-74
2023/11/10 05:15:07;;;;;;;14.20;2.00;;;10.40;97.90;;;;;;7382480;19;20009;-74
2023/11/10 05:17:39;;;;;;;10.70;2.30;;;10.50;97.80;;;;;;7381936;19;20366;-74
2023/11/10 05:20:09;;;;;;;14.70;2.95;;;10.60;97.70;;;;;;7382441;19;20039;-74
2023/11/10 05:22:43;;;;;;;11.80;1.92;;;10.40;97.70;;;;;;7403728;19;20002;-74
2023/11/10 05:25:13;;;;;;;20.10;2.00;;;10.40;97.90;;;;;;7380856;19;20010;-74
2023/11/10 05:27:42;;;;;;;12.13;2.65;;;10.30;97.70;;;;;;7381248;19;19999;-74
2023/11/10 05:30:12;;;;;;;13.95;2.53;;;10.50;97.80;;;;;;7380981;19;20013;-74
2023/11/10 05:32:40;;;;;;;15.98;2.15;;;10.60;97.60;;;;;;7380822;19;20026;-74
2023/11/10 05:35:10;;;;;;;17.70;2.53;;;10.60;97.50;;;;;;7381120;19;20342;-73
2023/11/10 05:37:41;;;;;;;15.23;1.85;;;10.70;97.50;;;;;;7402392;19;20006;-74
2023/11/10 05:40:14;;;;;;;10.80;2.38;;;10.50;97.50;;;;;;7383664;19;20070;-73
2023/11/10 05:42:40;;;;;;;10.98;2.25;;;10.40;97.60;;;;;;7380706;19;20042;-73
2023/11/10 05:45:11;;;;;;;13.75;2.25;;;10.50;97.50;;;;;;7380181;19;20010;-74
2023/11/10 05:47:40;;;;;;;16.88;2.08;;;10.50;97.50;;;;;;7381188;19;19999;-74
2023/11/10 05:50:09;;;;;;;10.90;2.47;;;10.40;97.60;;;;;;7380664;19;20058;-74
2023/11/10 05:52:40;;;;;;;17.17;2.33;;;10.50;97.50;;;;;;7402264;19;20011;-73
2023/11/10 05:55:11;;;;;;;12.05;1.92;;;10.40;97.50;;;;;;7379501;19;20077;-74
2023/11/10 05:57:42;;;;;;;12.40;2.30;;;10.50;97.50;;;;;;7380526;19;20007;-74
2023/11/10 06:00:11;;;;;;;19.55;2.83;;;10.30;97.60;;;;;;7380093;19;20021;-73
2023/11/10 06:02:41;;;;;;;15.93;2.28;;;10.30;97.60;;;;;;7380470;19;20003;-74
2023/11/10 06:05:10;;;;;;;14.50;2.03;;;10.50;97.70;;;;;;7381083;19;20015;-74
2023/11/10 06:07:43;;;;;;;7.22;1.88;;;10.40;97.60;;;;;;7400147;19;20222;-74
2023/11/10 06:10:12;;;;;;;16.60;2.25;;;10.50;97.70;;;;;;7379837;19;20003;-74
2023/11/10 06:12:41;;;;;;;12.43;2.65;;;10.40;97.70;;;;;;7379205;19;20070;-73
2023/11/10 06:15:13;;;;;;;17.05;2.28;;;10.40;97.60;;;;;;7379888;19;20070;-74
2023/11/10 06:17:41;;;;;;;15.60;2.38;;;10.30;97.50;;;;;;7381501;19;20003;-74
2023/11/10 06:20:12;;;;;;;11.02;2.42;;;10.40;97.50;;;;;;7379571;19;20011;-74
2023/11/10 06:22:43;;;;;;;7.75;1.80;;;10.40;97.60;;;;;;7401469;19;20011;-73
2023/11/10 06:25:12;;;;;;;;;;;10.30;97.50;;;;;;7379594;19;20011;-73
2023/11/10 06:27:41;;;;;;;13.82;2.30;;;10.40;97.50;;;;;;7379190;19;19966;-74
2023/11/10 06:30:12;;;;;;;17.20;2.05;;;10.30;97.70;;;;;;7379713;19;20003;-74
2023/11/10 06:32:40;;;;;;;13.23;1.98;;;10.20;97.60;;;;;;7379110;19;20357;-74
2023/11/10 06:35:10;;;;;;;18.90;2.83;;;9.80;98.10;;;;;;7379565;19;20010;-75
2023/11/10 06:37:39;;;;;;;15.35;2.47;;;10.10;98.20;;;;;;7399767;19;20021;-74
2023/11/10 06:40:12;;;;;;;28.05;2.33;;;10.30;98.20;;;;;;7379262;19;20025;-74
2023/11/10 06:42:40;;;;;;;17.75;2.83;;;10.40;97.80;;;;;;7378678;19;19998;-74
2023/11/10 06:45:10;;;;;;;13.70;2.40;;;10.50;97.60;;;;;;7379297;19;20016;-74
2023/11/10 06:47:39;;;;;;;15.02;2.40;;;10.60;97.40;;;;;;7379044;19;20267;-74
2023/11/10 06:50:08;;;;;;;19.17;2.70;;;10.60;97.40;;;;;;7379381;19;20007;-74
2023/11/10 06:52:37;;;;;;;13.10;2.25;;;10.50;97.40;;;;;;7400030;19;20103;-75
2023/11/10 06:55:13;;;;;;;13.43;2.03;;;10.60;97.30;;;;;;7378138;19;20014;-74
2023/11/10 06:57:44;;;;;;;12.20;2.38;;;10.50;97.30;;;;;;7378751;19;20002;-75
2023/11/10 07:00:13;;;;;;;;;;;10.50;97.50;;;;;;7379895;19;20007;-75
2023/11/10 07:02:42;;;;;;;11.63;2.40;;;10.60;97.40;;;;;;7378503;19;20330;-74
2023/11/10 07:05:11;;;;;;;17.15;2.63;;;10.70;97.20;;;;;;7378328;19;20685;-74
2023/11/10 07:07:40;;;;;;;11.02;2.20;;;10.80;97.10;;;;;;7398924;19;20020;-73
2023/11/10 07:10:10;;;;;;;10.77;2.47;;;10.70;97.10;;;;;;7377906;19;20013;-73
2023/11/10 07:12:39;;;;;;;15.95;3.17;;;10.80;97.30;;;;;;7377903;19;20281;-73
2023/11/10 07:15:11;;;;;;;13.43;2.38;;;10.60;97.40;;;;;;7378408;19;20010;-75
2023/11/10 07:17:41;;;;;;;19.13;3.15;;;10.40;97.70;;;;;;7379836;19;20055;-78
2023/11/10 07:20:13;;;;;;;17.67;3.08;;;10.50;97.70;;;;;;7382116;19;20015;-79
2023/11/10 07:22:42;;;;;;;14.73;3.22;;;10.40;98.00;;;;;;7405531;19;20017;-81
2023/11/10 07:25:11;;;;;;;8.82;2.10;;;10.00;98.30;;;;;;7383372;19;20007;-81
2023/11/10 07:27:41;;;;;;;14.63;2.45;;;10.10;98.40;;;;;;7383001;19;20003;-82
2023/11/10 07:30:14;;;;;;;15.20;2.17;;;10.40;98.20;;;;;;7384545;19;20038;-79
2023/11/10 07:32:43;;;;;;;17.63;3.00;;;10.50;98.00;;;;;;7386689;19;20034;-81
2023/11/10 07:35:13;;;;;;;13.95;2.78;;;10.50;97.80;;;;;;7382440;19;20016;-79
2023/11/10 07:37:44;;;;;;;18.98;2.75;;;10.50;97.80;;;;;;7404667;19;20019;-79
2023/11/10 07:40:14;;;;;;;17.52;2.95;;;10.40;97.90;;;;;;7382556;19;20017;-80
2023/11/10 07:42:44;;;;;;;19.10;2.75;;;10.40;98.00;;;;;;7383242;19;20023;-80
2023/11/10 07:45:18;;;;;;;22.10;2.22;;;10.60;97.90;;;;;;7386612;19;20063;-81
2023/11/10 07:47:53;;;;;;;20.02;2.65;;;10.50;97.70;;;;;;7389474;19;20068;-83
2023/11/10 07:50:23;;;;;;;20.15;2.63;;;10.50;98.00;;;;;;7392902;19;20047;-81
2023/11/10 07:52:55;;;;;;;33.22;3.17;;;10.70;97.80;;;;;;7418816;19;20010;-84
2023/11/10 07:55:24;;;;;;;13.73;2.85;;;10.60;97.70;;;;;;7396961;19;20094;-82
2023/11/10 07:57:53;;;;;;;28.23;3.70;;;10.70;97.80;;;;;;7385454;19;20062;-77
2023/11/10 08:00:24;;;;;;;13.40;3.00;;;10.80;97.50;;;;;;7385366;19;20241;-77
2023/11/10 08:02:53;;;;;;;;;;;10.90;97.40;;;;;;7388055;19;20022;-79
2023/11/10 08:05:22;;;;;;;31.38;3.63;;;10.80;97.40;;;;;;7382792;19;20290;-76
2023/11/10 08:07:52;;;;;;;14.63;2.63;;;10.60;98.00;;;;;;7404064;19;20017;-75
2023/11/10 08:10:22;;;;;;;18.17;2.72;;;10.70;98.00;;;;;;7383405;19;20030;-75
2023/11/10 08:12:53;;;;;;;14.13;2.65;;;10.90;97.80;;;;;;7383234;19;20070;-76
2023/11/10 08:15:24;;;;;;;30.40;3.40;;;10.60;97.90;;;;;;7383775;19;20006;-78
2023/11/10 08:24:09;;;;;;;25.20;3.20;;;10.80;97.70;;;;;;7387956;19;20091;-82
2023/11/10 08:30:16;;;;;;;23.63;3.25;;;10.60;97.90;;;;;;7407805;19;20022;-87
2023/11/10 08:39:12;;;;;;;19.55;3.13;;;10.70;97.70;;;;;;7386423;19;19995;-81
2023/11/10 09:02:00;;;;;;;14.20;2.58;;;10.90;97.80;;;;;;7384250;19;20331;-84
2023/11/10 09:07:54;;;;;;;23.98;3.00;;;11.40;97.30;;;;;;7382004;19;20090;-83
2023/11/10 09:10:56;;;;;;;17.58;3.22;;;11.50;97.10;;;;;;7385070;19;19999;-83
2023/11/10 09:13:25;;;;;;;12.43;2.28;;;11.60;97.10;;;;;;7381796;19;20007;-78
2023/11/10 09:15:54;;;;;;;17.50;3.03;;;11.50;97.00;;;;;;7382959;19;20538;-78
2023/11/10 09:18:27;;;;;;;19.90;3.17;;;11.30;97.10;;;;;;7384872;19;20051;-78
2023/11/10 09:20:56;;;;;;;16.30;3.22;;;11.40;97.20;;;;;;7383832;19;20023;-77
2023/11/10 09:23:28;;;;;;;17.17;2.70;;;11.60;96.90;;;;;;7381923;19;20394;-74
2023/11/10 09:25:57;;;;;;;20.70;2.95;;;11.50;97.00;;;;;;7403690;19;20022;-75
2023/11/10 09:28:30;;;;;;;26.88;3.05;;;11.50;97.10;;;;;;7381480;19;20019;-75
2023/11/10 09:30:59;;;;;;;16.55;2.90;;;11.60;96.70;;;;;;7382077;19;20009;-74
2023/11/10 09:34:00;;;;;;;17.45;2.63;;;11.60;97.00;;;;;;7383478;19;20035;-84
2023/11/10 09:36:33;;;;;;;21.77;2.80;;;11.70;96.90;;;;;;7386529;19;20011;-82
2023/11/10 09:39:02;;;;;;;20.60;2.80;;;11.80;96.90;;;;;;7386858;19;20011;-79
2023/11/10 09:41:38;;;;;;;8.98;2.58;;;11.90;96.70;;;;;;7384990;19;20240;-79
2023/11/10 09:44:11;;;;;;;15.13;2.75;;;11.60;97.00;;;;;;7384481;19;20028;-79
2023/11/10 09:46:41;;;;;;;16.50;2.50;;;11.60;97.00;;;;;;7407681;19;20035;-80
2023/11/10 09:52:34;;;;;;;16.90;2.50;;;11.80;96.90;;;;;;7384837;19;20063;-80
2023/11/10 09:58:46;;;;;;;17.35;3.20;;;12.10;96.60;;;;;;7384695;19;20028;-83
2023/11/10 10:01:15;;;;;;;18.73;2.75;;;11.90;96.70;;;;;;7384645;19;20013;-79
2023/11/10 10:04:35;;;;;;;19.52;3.17;;;11.90;96.80;;;;;;7383904;19;20006;-83
2023/11/10 10:10:22;;;;;;;8.55;2.22;;;11.90;97.00;;;;;;7382347;19;20006;-80
2023/11/10 10:12:51;;;;;;;19.73;3.00;;;12.10;96.80;;;;;;7380344;19;20006;-79
2023/11/10 10:15:29;;;;;;;24.33;3.38;;;12.10;96.70;;;;;;7379600;19;20740;-76
2023/11/10 10:18:07;;;;;;;24.35;2.60;;;12.10;96.60;;;;;;7382635;19;20382;-79
2023/11/10 10:20:45;;;;;;;20.13;2.90;;;12.00;96.90;;;;;;7386072;19;20071;-84
2023/11/10 10:23:18;;;;;;;19.48;2.95;;;12.00;96.80;;;;;;7384258;19;20027;-84
2023/11/10 10:26:01;;;;;;;26.10;3.13;;;12.00;96.90;;;;;;7405725;19;20019;-82
2023/11/10 10:28:32;;;;;;;16.20;2.90;;;12.20;96.80;;;;;;7384070;19;20024;-82
2023/11/10 10:31:01;;;;;;;18.50;2.92;;;12.30;96.40;;;;;;7384633;19;20002;-80
2023/11/10 10:33:46;;;;;;;14.95;2.85;;;12.40;96.40;;;;;;7384708;19;20044;-84
2023/11/10 10:36:15;;;;;;;18.02;2.92;;;12.50;96.40;;;;;;7392912;19;20007;-77
2023/11/10 10:38:50;;;;;;;15.48;3.17;;;12.50;96.30;;;;;;7388590;19;20094;-77
2023/11/10 10:41:22;;;;;;;17.67;3.03;;;12.40;96.20;;;;;;7390822;19;20020;-77
2023/11/10 10:43:52;;;;;;;15.57;2.55;;;12.50;96.30;;;;;;7417380;19;20023;-77
2023/11/10 10:46:22;;;;;;;17.60;2.90;;;12.60;96.30;;;;;;7396346;19;20126;-77
2023/11/10 10:48:52;;;;;;;21.95;2.70;;;12.60;96.30;;;;;;7393344;19;20051;-77
2023/11/10 10:51:21;;;;;;;17.40;2.75;;;12.70;96.00;;;;;;7389158;19;20007;-75
2023/11/10 10:53:53;;;;;;;17.02;2.58;;;12.70;95.80;;;;;;7380118;19;20010;-77
2023/11/10 10:56:23;;;;;;;27.17;3.10;;;12.50;95.70;;;;;;7378052;19;20091;-74
2023/11/10 10:58:52;;;;;;;21.05;2.65;;;12.40;96.10;;;;;;7400680;19;20079;-76
2023/11/10 11:01:24;;;;;;;16.38;2.88;;;12.50;96.00;;;;;;7379355;19;20003;-79
2023/11/10 11:04:03;;;;;;;22.75;3.03;;;12.50;96.10;;;;;;7388275;19;20003;-79
2023/11/10 11:06:44;;;;;;;15.82;2.47;;;12.60;96.00;;;;;;7378789;19;20020;-77
2023/11/10 11:35:15;;;;;;;14.70;2.55;;;12.60;95.50;;;;;;7411186;19;20014;-81
2023/11/10 11:37:48;;;;;;;20.80;2.92;;;12.70;95.10;;;;;;7385156;19;20010;-74
2023/11/10 11:40:16;;;;;;;12.80;2.45;;;12.70;95.00;;;;;;7408751;19;20011;-74
2023/11/10 11:42:47;;;;;;;16.58;2.42;;;12.70;95.10;;;;;;7384979;19;20006;-74
2023/11/10 11:45:17;;;;;;;18.88;3.10;;;12.80;95.20;;;;;;7385517;19;20152;-74
2023/11/10 11:47:46;;;;;;;26.30;2.83;;;12.70;95.30;;;;;;7385137;19;20007;-74
2023/11/10 11:50:15;;;;;;;16.80;2.33;;;12.50;95.40;;;;;;7384644;19;20015;-74
2023/11/10 11:52:48;;;;;;;17.40;3.13;;;12.60;95.60;;;;;;7406363;19;20066;-74
2023/11/10 11:55:19;;;;;;;27.25;2.80;;;12.80;95.60;;;;;;7381502;19;20010;-76
2023/11/10 11:57:49;;;;;;;11.77;2.08;;;12.90;95.10;;;;;;7384399;19;20071;-73
2023/11/10 12:00:19;;;;;;;;;;;13.10;94.80;;;;;;7385296;19;20002;-72
2023/11/10 12:02:48;;;;;;;20.40;2.13;;;13.00;94.80;;;;;;7384415;19;19966;-74
2023/11/10 12:05:17;;;;;;;14.45;2.95;;;13.10;94.80;;;;;;7384656;19;20003;-74
2023/11/10 12:07:48;;;;;;;12.93;2.75;;;13.30;94.80;;;;;;7406090;19;20014;-73
2023/11/10 12:10:17;;;;;;;18.70;2.78;;;13.30;94.70;;;;;;7387754;19;20011;-73
2023/11/10 12:12:46;;;;;;;11.32;2.20;;;13.40;94.70;;;;;;7384928;19;20015;-73
2023/11/10 12:15:16;;;;;;;14.50;3.00;;;13.30;94.60;;;;;;7383152;19;20365;-74
2023/11/10 12:17:47;;;;;;;14.55;2.72;;;13.10;94.80;;;;;;7384039;19;20010;-73
2023/11/10 12:20:17;;;;;;;15.48;2.92;;;13.10;94.90;;;;;;7384004;19;20010;-74
2023/11/10 12:22:56;;;;;;;21.75;3.00;;;13.20;94.90;;;;;;7405089;19;20007;-74
2023/11/10 12:25:26;;;;;;;13.38;2.97;;;13.30;94.90;;;;;;7382707;19;20082;-74
2023/11/10 12:27:55;;;;;;;18.05;2.55;;;13.40;94.90;;;;;;7383329;19;20009;-74
2023/11/10 12:30:26;;;;;;;20.92;2.72;;;13.40;94.80;;;;;;7383743;19;20078;-75
2023/11/10 12:32:55;;;;;;;19.80;3.08;;;13.40;94.80;;;;;;7383090;19;20027;-74
2023/11/10 12:35:25;;;;;;;23.58;3.10;;;13.30;94.60;;;;;;7380533;19;20123;-74
2023/11/10 12:37:57;;;;;;;11.98;2.65;;;13.30;95.10;;;;;;7405389;19;20015;-74
2023/11/10 12:40:27;;;;;;;22.35;3.95;;;13.30;95.00;;;;;;7382886;19;20066;-75
2023/11/10 12:42:58;;;;;;;20.50;3.27;;;13.30;94.90;;;;;;7383452;19;20011;-75
2023/11/10 12:45:28;;;;;;;21.63;2.92;;;13.10;95.20;;;;;;7382447;19;20006;-74
2023/11/10 12:47:59;;;;;;;19.60;2.43;;;13.20;95.20;;;;;;7383319;19;20009;-74
2023/11/10 12:50:36;;;;;;;21.70;3.30;;;13.10;94.90;;;;;;7383425;19;20292;-76
2023/11/10 12:53:11;;;;;;;29.75;7.93;;;13.10;95.40;;;;;;7383265;19;20271;-77
2023/11/10 12:55:41;;;;;;;22.17;3.33;;;13.00;95.70;;;;;;7401883;19;20023;-76
2023/11/10 12:58:10;;;;;;;17.70;2.90;;;13.00;95.80;;;;;;7382043;19;20022;-75
2023/11/10 13:00:44;;;;;;;16.98;2.83;;;13.00;96.20;;;;;;7381885;19;20010;-77
2023/11/10 13:03:13;;;;;;;22.75;3.10;;;13.10;96.40;;;;;;7383221;19;20015;-76
2023/11/10 13:05:42;;;;;;;19.52;2.88;;;13.10;96.50;;;;;;7382716;19;20009;-74
2023/11/10 13:08:13;;;;;;;17.80;3.08;;;13.20;96.60;;;;;;7382971;19;20023;-75
2023/11/10 13:10:43;;;;;;;32.72;3.83;;;13.00;96.50;;;;;;7406236;19;20007;-77
2023/11/10 13:16:24;;;;;;;17.47;2.73;;;12.70;97.40;;;;;;7383507;19;20046;-80
2023/11/10 13:18:53;;;;;;;22.33;3.65;;;12.90;97.20;;;;;;7385040;19;20007;-77
2023/11/10 13:21:22;;;;;;;14.77;2.63;;;12.80;97.50;;;;;;7381737;19;20250;-76
2023/11/10 13:23:56;;;;;;;15.63;3.15;;;12.80;98.20;;;;;;7382680;19;20003;-79
2023/11/10 13:26:25;;;;;;;24.00;3.10;;;13.00;98.30;;;;;;7383503;19;20025;-77
2023/11/10 13:28:53;;;;;;;19.38;2.90;;;12.70;98.50;;;;;;7404734;19;20015;-77
2023/11/10 13:31:28;;;;;;;20.08;2.85;;;12.70;98.70;;;;;;7397947;19;20035;-78
2023/11/10 13:40:33;;;;;;;24.65;5.50;;;12.80;99.10;;;;;;7385935;19;20013;-77
2023/11/10 13:43:02;;;;;;;;;;;12.70;99.30;;;;;;7402149;19;20010;-78
2023/11/10 13:45:32;;;;;;;15.43;2.75;;;12.80;99.50;;;;;;7400126;19;19907;-81
2023/11/10 13:48:55;;;;;;;19.08;3.72;;;12.70;99.30;;;;;;7388730;19;20088;-85
2023/11/10 13:51:24;;;;;;;25.23;3.15;;;12.60;99.10;;;;;;7389232;19;20010;-82
2023/11/10 13:53:54;;;;;;;23.73;2.95;;;12.80;99.20;;;;;;7388265;19;20366;-83
2023/11/10 13:56:53;;;;;;;9.88;2.60;;;12.80;99.50;;;;;;7385759;19;20008;-83
2023/11/10 13:59:25;;;;;;;22.00;3.22;;;12.80;99.20;;;;;;7385134;19;20008;-82
2023/11/10 14:02:00;;;;;;;11.55;2.40;;;12.90;99.20;;;;;;7407160;19;20007;-84
2023/11/10 14:04:32;;;;;;;19.27;2.35;;;12.80;99.20;;;;;;7386540;19;20276;-82
2023/11/10 14:07:03;;;;;;;20.23;2.90;;;12.40;99.90;;;;;;7386147;19;20002;-81
2023/11/10 14:09:33;;;;;;;14.38;2.97;;;12.60;99.90;;;;;;7382096;19;20010;-73
2023/11/10 14:12:07;;;;;;;22.98;3.22;;;12.50;99.90;;;;;;7382016;19;20006;-75
2023/11/10 14:14:39;;;;;;;14.75;1.92;;;12.60;99.90;;;;;;7379643;19;20006;-76
2023/11/10 14:17:10;;;;;;;21.15;2.83;;;12.70;99.90;;;;;;7380104;19;20055;-76
2023/11/10 14:19:39;;;;;;;22.73;2.85;;;12.60;99.70;;;;;;7401623;19;20010;-75
2023/11/10 14:22:08;;;;;;;17.88;3.10;;;12.70;99.80;;;;;;7379024;19;20301;-75
2023/11/10 14:24:37;;;;;;;14.00;2.78;;;12.80;99.90;;;;;;7382559;19;20005;-75